Time;durP1;ratioP1;P1;durP2;ratioP2;P2;SDS_P1;SDS_P2;PMS_P1;PMS_P2;Temp;Humidity;BMP_temperature;BMP_pressure;BME280_temperature;BME280_humidity;BME280_pressure;Samples;Min_cycle;Max_cycle;Signal;HPM_P1;HPM_P2
2021/01/25 00:00:15;;;;;;;70.15;46.75;;;;;;;-0.76;100.00;99499.84;5050585;28;20048;-84
2021/01/25 00:02:41;;;;;;;74.03;48.38;;;;;;;-0.74;100.00;99509.28;5049557;28;20037;-84
2021/01/25 00:05:08;;;;;;;70.88;48.53;;;;;;;-0.73;100.00;99510.94;5044382;28;20098;-83
2021/01/25 00:07:34;;;;;;;74.30;49.00;;;;;;;-0.76;100.00;99507.72;5052049;28;20504;-84
2021/01/25 00:10:00;;;;;;;74.57;48.72;;;;;;;-0.77;100.00;99506.06;5046480;28;20480;-85
2021/01/25 00:12:28;;;;;;;70.47;46.55;;;;;;;-0.80;100.00;99506.31;5050040;28;20069;-83
2021/01/25 00:14:54;;;;;;;77.20;47.95;;;;;;;-0.82;100.00;99514.31;5024943;28;20103;-84
2021/01/25 00:17:19;;;;;;;69.18;45.28;;;;;;;-0.90;100.00;99511.47;5044353;28;20040;-83
2021/01/25 00:19:45;;;;;;;72.00;46.78;;;;;;;-0.90;100.00;99514.09;5049576;28;20033;-84
2021/01/25 00:22:10;;;;;;;78.88;48.85;;;;;;;-0.92;100.00;99513.41;5045297;28;20056;-83
2021/01/25 00:24:36;;;;;;;75.75;49.10;;;;;;;-0.93;100.00;99517.81;5030369;28;20087;-83
2021/01/25 00:27:01;;;;;;;70.50;47.50;;;;;;;-0.92;100.00;99513.41;5047605;28;20049;-82
2021/01/25 00:29:27;;;;;;;72.32;49.03;;;;;;;-0.91;100.00;99510.63;5047283;28;20041;-82
2021/01/25 00:31:54;;;;;;;75.68;48.65;;;;;;;-0.94;100.00;99510.88;5014746;28;20416;-86
2021/01/25 00:34:20;;;;;;;73.15;47.55;;;;;;;-0.92;100.00;99516.03;5050726;28;20100;-83
2021/01/25 00:36:46;;;;;;;72.80;49.83;;;;;;;-0.91;100.00;99515.06;5041702;28;20040;-83
2021/01/25 00:39:11;;;;;;;74.15;49.17;;;;;;;-0.92;100.00;99516.88;5045434;28;20045;-85
2021/01/25 00:41:37;;;;;;;74.82;48.45;;;;;;;-0.94;100.00;99513.50;5016135;28;20393;-85
2021/01/25 00:44:02;;;;;;;70.93;47.97;;;;;;;-0.92;100.00;99513.41;5030600;28;20404;-83
2021/01/25 00:46:28;;;;;;;76.80;48.47;;;;;;;-0.93;100.00;99509.06;5028739;28;20068;-83
2021/01/25 00:48:53;;;;;;;71.32;46.83;;;;;;;-1.00;100.00;99507.91;5045993;28;20037;-84
2021/01/25 00:51:18;;;;;;;79.55;48.90;;;;;;;-0.96;100.00;99509.31;5031350;28;20049;-84
2021/01/25 00:53:44;;;;;;;75.55;49.15;;;;;;;-1.01;100.00;99511.47;5043987;28;20060;-83
2021/01/25 00:56:12;;;;;;;78.72;49.10;;;;;;;-0.97;100.00;99505.84;5043915;28;20118;-85
2021/01/25 00:58:39;;;;;;;79.28;48.75;;;;;;;-0.96;100.00;99501.44;5042652;28;20182;-85
2021/01/25 01:01:05;;;;;;;82.80;50.55;;;;;;;-0.97;100.00;99499.75;5043429;28;20049;-83
2021/01/25 01:03:31;;;;;;;67.35;45.63;;;;;;;-0.92;100.00;99502.88;5038249;28;20044;-80
2021/01/25 01:05:56;;;;;;;66.05;45.10;;;;;;;-0.92;100.00;99500.25;5012559;28;20394;-84
2021/01/25 01:08:21;;;;;;;72.40;47.95;;;;;;;-0.93;100.00;99509.06;5031933;28;20037;-82
2021/01/25 01:10:47;;;;;;;71.38;47.03;;;;;;;-1.00;100.00;99508.75;5047787;28;20052;-85
2021/01/25 01:13:12;;;;;;;69.78;46.55;;;;;;;-0.93;100.00;99502.00;5048098;28;20045;-80
2021/01/25 01:15:38;;;;;;;72.93;45.70;;;;;;;-0.91;100.00;99502.72;5049075;28;20551;-85
2021/01/25 01:18:04;;;;;;;72.20;45.58;;;;;;;-0.92;100.00;99508.13;5045176;28;20056;-83
2021/01/25 01:20:29;;;;;;;72.15;48.53;;;;;;;-0.92;100.00;99501.06;5042348;28;20162;-85
2021/01/25 01:22:54;;;;;;;65.18;43.95;;;;;;;-0.94;100.00;99505.63;5047062;28;20061;-82
2021/01/25 01:25:20;;;;;;;73.53;44.83;;;;;;;-0.93;100.00;99503.81;5046611;28;20050;-85
2021/01/25 01:27:45;;;;;;;68.53;45.83;;;;;;;-0.96;100.00;99507.53;5047307;28;20075;-83
2021/01/25 01:30:12;;;;;;;68.28;44.88;;;;;;;-0.92;100.00;99503.69;5011534;28;20420;-82
2021/01/25 01:32:38;;;;;;;66.72;44.13;;;;;;;-0.90;100.00;99511.47;5044215;28;20033;-80
2021/01/25 01:35:04;;;;;;;71.00;45.65;;;;;;;-0.90;100.00;99508.84;5029030;28;20492;-84
2021/01/25 01:37:30;;;;;;;65.10;43.13;;;;;;;-0.99;100.00;99513.03;5045159;28;20125;-86
2021/01/25 01:39:55;;;;;;;60.30;41.53;;;;;;;-1.04;100.00;99511.72;5045044;28;20132;-83
2021/01/25 01:42:21;;;;;;;68.03;43.22;;;;;;;-1.01;100.00;99511.47;5047119;28;20411;-84
2021/01/25 01:44:46;;;;;;;66.10;43.10;;;;;;;-0.99;100.00;99509.56;5041737;28;20055;-84
2021/01/25 01:47:16;;;;;;;66.00;43.22;;;;;;;-0.95;100.00;99514.47;5049715;28;20132;-83
2021/01/25 01:49:42;;;;;;;70.35;45.97;;;;;;;-0.95;100.00;99509.22;5044949;28;20048;-83
2021/01/25 01:52:07;;;;;;;70.05;43.72;;;;;;;-0.97;100.00;99512.94;5046971;28;20053;-82
2021/01/25 01:54:33;;;;;;;63.92;41.78;;;;;;;-0.94;100.00;99510.03;5051585;28;20050;-86
2021/01/25 01:56:59;;;;;;;64.32;42.03;;;;;;;-0.99;100.00;99517.47;5048058;28;20072;-86
2021/01/25 01:59:24;;;;;;;67.60;46.03;;;;;;;-0.97;100.00;99515.56;5056921;28;20037;-84
2021/01/25 02:01:50;;;;;;;69.18;46.15;;;;;;;-0.98;100.00;99514.72;5037381;28;20048;-82
2021/01/25 02:04:15;;;;;;;68.90;44.60;;;;;;;-1.07;100.00;99517.22;5056859;28;20104;-85
2021/01/25 02:06:42;;;;;;;66.68;41.65;;;;;;;-1.15;100.00;99523.97;5036171;28;20048;-86
2021/01/25 02:09:10;;;;;;;67.13;43.97;;;;;;;-1.05;100.00;99523.22;5036808;28;20120;-83
2021/01/25 02:11:36;;;;;;;70.63;46.13;;;;;;;-1.09;100.00;99534.94;5056706;28;20048;-86
2021/01/25 02:14:02;;;;;;;68.63;45.63;;;;;;;-1.19;100.00;99525.13;5054504;28;20045;-85
2021/01/25 02:16:28;;;;;;;68.38;44.90;;;;;;;-1.09;100.00;99533.16;5034891;28;20515;-84
2021/01/25 02:18:53;;;;;;;67.95;43.80;;;;;;;-1.08;100.00;99531.38;5033449;28;20127;-85
2021/01/25 02:21:20;;;;;;;67.55;45.92;;;;;;;-1.08;100.00;99532.19;5015371;28;20045;-85
2021/01/25 02:24:04;;;;;;;69.88;45.97;;;;;;;-1.10;100.00;99528.00;5045761;28;20040;-80
2021/01/25 02:27:11;;;;;;;69.53;44.65;;;;;;;-1.14;100.00;99530.88;5048210;28;20046;-84
2021/01/25 02:29:36;;;;;;;67.88;45.70;;;;;;;-1.15;100.00;99531.84;5028596;28;20083;-84
2021/01/25 02:32:02;;;;;;;69.38;45.15;;;;;;;-1.19;100.00;99529.56;5050313;28;20033;-86
2021/01/25 02:34:30;;;;;;;68.35;44.55;;;;;;;-1.19;100.00;99529.56;5049622;28;20048;-85
2021/01/25 02:36:58;;;;;;;65.63;43.50;;;;;;;-1.18;100.00;99534.72;5050483;28;20080;-85
2021/01/25 02:39:25;;;;;;;73.10;47.13;;;;;;;-1.16;100.00;99538.06;5052098;28;20140;-86
2021/01/25 02:41:52;;;;;;;71.93;46.38;;;;;;;-1.19;100.00;99542.72;5048136;28;20045;-80
2021/01/25 02:44:18;;;;;;;72.82;45.50;;;;;;;-1.24;100.00;99540.44;5067897;28;20056;-83
2021/01/25 02:46:44;;;;;;;78.05;49.05;;;;;;;-1.23;100.00;99541.31;5053208;28;20131;-85
2021/01/25 02:49:10;;;;;;;76.25;48.85;;;;;;;-1.17;100.00;99544.28;5080329;22;20497;-83
2021/01/25 02:51:36;;;;;;;72.05;49.65;;;;;;;-1.11;100.00;99535.06;5055396;28;20044;-84
2021/01/25 02:54:01;;;;;;;75.07;49.15;;;;;;;-1.11;100.00;99539.50;5024769;28;20053;-85
2021/01/25 02:56:27;;;;;;;71.03;47.58;;;;;;;-1.11;100.00;99539.50;5050503;28;20041;-85
2021/01/25 02:58:52;;;;;;;73.65;48.38;;;;;;;-1.13;100.00;99531.72;5009899;28;20515;-85
2021/01/25 03:01:18;;;;;;;76.20;47.67;;;;;;;-1.11;100.00;99537.72;5044973;28;20046;-85
2021/01/25 03:03:45;;;;;;;74.88;48.30;;;;;;;-1.14;100.00;99540.59;5034073;28;20033;-84
2021/01/25 03:06:11;;;;;;;73.53;49.05;;;;;;;-1.31;100.00;99544.53;5052075;28;20064;-84
2021/01/25 03:08:36;;;;;;;72.40;46.08;;;;;;;-1.36;100.00;99546.66;5039170;28;20103;-84
2021/01/25 03:11:03;;;;;;;74.47;46.78;;;;;;;-1.31;100.00;99541.91;5038716;28;20657;-84
2021/01/25 03:13:29;;;;;;;70.70;48.58;;;;;;;-1.21;100.00;99545.50;5034511;28;20104;-84
2021/01/25 03:15:58;;;;;;;74.68;50.17;;;;;;;-1.16;100.00;99545.97;5045054;28;20033;-84
2021/01/25 03:18:25;;;;;;;69.85;46.65;;;;;;;-1.08;100.00;99549.81;5032713;28;20041;-84
2021/01/25 03:20:51;;;;;;;72.55;48.72;;;;;;;-1.02;100.00;99549.31;5048012;28;20072;-83
2021/01/25 03:23:17;;;;;;;68.53;45.70;;;;;;;-1.00;100.00;99553.50;5053633;28;20403;-84
2021/01/25 03:25:43;;;;;;;69.78;44.78;;;;;;;-1.06;100.00;99554.00;5053137;28;20056;-84
2021/01/25 03:28:09;;;;;;;66.82;46.13;;;;;;;-0.99;100.00;99556.97;5054358;28;20413;-84
2021/01/25 03:30:35;;;;;;;77.28;46.28;;;;;;;-1.01;100.00;99558.88;5056067;28;20041;-85
2021/01/25 03:33:00;;;;;;;69.47;46.10;;;;;;;-1.00;100.00;99557.94;5037411;28;20033;-84
2021/01/25 03:35:26;;;;;;;67.45;46.72;;;;;;;-1.02;100.00;99554.59;5036957;28;20069;-86
2021/01/25 03:37:52;;;;;;;71.35;46.22;;;;;;;-1.05;100.00;99555.66;5032904;28;20195;-84
2021/01/25 03:40:17;;;;;;;68.65;46.95;;;;;;;-1.05;100.00;99560.91;5040263;28;20048;-86
2021/01/25 03:42:43;;;;;;;68.97;44.33;;;;;;;-1.07;100.00;99559.38;5035717;28;20516;-82
2021/01/25 03:45:08;;;;;;;74.95;47.33;;;;;;;-1.01;100.00;99566.78;5054502;28;20068;-83
2021/01/25 03:47:34;;;;;;;74.90;48.25;;;;;;;-1.08;100.00;99569.06;5054442;28;20544;-84
2021/01/25 03:49:59;;;;;;;71.25;46.17;;;;;;;-1.08;100.00;99570.88;5054115;28;20051;-84
2021/01/25 03:52:25;;;;;;;69.90;45.97;;;;;;;-1.06;100.00;99561.06;5040998;28;20448;-84
2021/01/25 03:54:51;;;;;;;72.65;46.67;;;;;;;-1.06;100.00;99569.78;5066105;28;20044;-82
2021/01/25 03:57:17;;;;;;;74.10;46.60;;;;;;;-1.05;100.00;99568.00;5055733;28;20032;-81
2021/01/25 03:59:43;;;;;;;71.93;48.33;;;;;;;-1.03;100.00;99568.72;5055418;28;20079;-85
2021/01/25 04:02:08;;;;;;;68.80;46.50;;;;;;;-1.06;100.00;99566.31;5019401;28;20045;-85
2021/01/25 04:04:34;;;;;;;74.97;47.35;;;;;;;-1.03;100.00;99568.72;5048599;28;20041;-83
2021/01/25 04:06:59;;;;;;;71.25;46.83;;;;;;;-1.02;100.00;99565.13;5049573;28;20056;-84
2021/01/25 04:09:25;;;;;;;70.35;47.00;;;;;;;-1.02;100.00;99567.75;5052459;28;20045;-82
2021/01/25 04:11:50;;;;;;;70.45;46.88;;;;;;;-1.06;100.00;99579.50;5023515;28;20040;-85
2021/01/25 04:14:16;;;;;;;69.78;48.70;;;;;;;-1.08;100.00;99576.97;5037046;28;20100;-84
2021/01/25 04:16:41;;;;;;;73.47;46.45;;;;;;;-1.06;100.00;99580.31;5034901;28;20067;-84
2021/01/25 04:19:07;;;;;;;71.60;47.28;;;;;;;-1.03;100.00;99584.50;5055815;28;20040;-86
2021/01/25 04:21:32;;;;;;;69.45;48.03;;;;;;;-1.17;100.00;99588.22;5033868;28;20033;-85
2021/01/25 04:23:58;;;;;;;75.18;48.63;;;;;;;-1.16;100.00;99589.88;5051198;28;20103;-84
2021/01/25 04:26:24;;;;;;;71.57;46.50;;;;;;;-1.09;100.00;99590.22;5019287;28;20049;-84
2021/01/25 04:28:50;;;;;;;71.75;47.10;;;;;;;-1.04;100.00;99588.91;5046610;28;20041;-84
2021/01/25 04:31:15;;;;;;;70.25;45.35;;;;;;;-1.06;100.00;99590.84;5035433;28;20075;-85
2021/01/25 04:33:41;;;;;;;69.35;44.35;;;;;;;-1.11;100.00;99597.44;5053149;28;20044;-84
2021/01/25 04:36:07;;;;;;;74.78;48.72;;;;;;;-1.08;100.00;99594.56;5047048;28;20560;-84
2021/01/25 04:38:32;;;;;;;69.13;48.05;;;;;;;-1.04;100.00;99606.53;5044984;28;20040;-84
2021/01/25 04:40:58;;;;;;;73.90;48.50;;;;;;;-1.04;100.00;99604.72;5054887;28;20040;-83
2021/01/25 04:43:25;;;;;;;76.68;49.40;;;;;;;-1.03;100.00;99601.16;5030226;28;20052;-83
2021/01/25 04:45:53;;;;;;;70.70;47.53;;;;;;;-1.00;100.00;99602.72;5050750;28;20049;-84
2021/01/25 04:48:19;;;;;;;81.40;51.05;;;;;;;-1.03;100.00;99605.59;5033995;28;20040;-84
2021/01/25 04:50:45;;;;;;;74.68;50.53;;;;;;;-1.01;100.00;99608.91;5046324;28;20063;-84
2021/01/25 04:53:11;;;;;;;72.72;49.15;;;;;;;-1.01;100.00;99608.91;5030938;28;20056;-84
2021/01/25 04:55:37;;;;;;;72.53;49.00;;;;;;;-0.99;100.00;99615.75;5034118;28;20055;-84
2021/01/25 04:58:03;;;;;;;77.38;48.90;;;;;;;-1.02;100.00;99620.41;5027900;28;20057;-85
2021/01/25 05:00:29;;;;;;;74.47;49.42;;;;;;;-1.00;100.00;99626.41;5048181;28;20497;-85
2021/01/25 05:02:55;;;;;;;70.22;50.17;;;;;;;-0.99;100.00;99622.81;5029510;28;20095;-83
2021/01/25 05:05:20;;;;;;;75.25;50.25;;;;;;;-1.13;100.00;99631.75;5050724;28;20055;-84
2021/01/25 05:07:46;;;;;;;72.38;48.60;;;;;;;-1.21;100.00;99624.47;5049704;28;20090;-84
2021/01/25 05:10:11;;;;;;;74.18;48.15;;;;;;;-1.17;100.00;99631.16;5052628;28;20124;-84
2021/01/25 05:12:48;;;;;;;77.93;51.83;;;;;;;-1.05;100.00;99641.72;5048483;28;20037;-84
2021/01/25 05:15:30;;;;;;;78.85;50.78;;;;;;;-1.03;100.00;99639.81;5012876;28;20106;-83
2021/01/25 05:18:00;;;;;;;74.00;47.47;;;;;;;-1.03;100.00;99632.75;5028302;28;20045;-84
2021/01/25 05:20:27;;;;;;;78.43;49.38;;;;;;;-1.02;100.00;99638.84;5049146;28;20048;-82
2021/01/25 05:22:55;;;;;;;74.80;48.17;;;;;;;-1.05;100.00;99642.56;5014655;28;20128;-83
2021/01/25 05:25:29;;;;;;;76.82;51.28;;;;;;;-1.06;100.00;99648.78;5047654;28;20051;-84
2021/01/25 05:27:58;;;;;;;76.32;50.17;;;;;;;-1.05;100.00;99645.19;5045747;28;20033;-84
2021/01/25 05:30:25;;;;;;;77.88;52.80;;;;;;;-1.05;100.00;99642.56;5026749;28;20097;-84
2021/01/25 05:32:53;;;;;;;80.53;51.20;;;;;;;-1.07;100.00;99643.63;5045341;28;20033;-84
2021/01/25 05:35:23;;;;;;;80.40;52.03;;;;;;;-1.02;100.00;99647.59;5043363;28;20048;-84
2021/01/25 05:38:04;;;;;;;77.93;52.20;;;;;;;-1.05;100.00;99650.44;5030680;28;20041;-84
2021/01/25 05:40:32;;;;;;;76.13;52.53;;;;;;;-1.11;100.00;99650.09;5047572;28;20041;-84
2021/01/25 05:42:58;;;;;;;77.10;51.97;;;;;;;-1.07;100.00;99646.25;5043234;28;20068;-83
2021/01/25 05:45:27;;;;;;;81.13;51.67;;;;;;;-1.24;100.00;99656.28;5041060;28;20057;-84
2021/01/25 05:47:53;;;;;;;78.65;52.67;;;;;;;-1.24;100.00;99651.00;5043944;28;20064;-85
2021/01/25 05:50:29;;;;;;;69.53;48.38;;;;;;;-1.22;100.00;99659.63;5042883;28;20057;-85
2021/01/25 05:52:57;;;;;;;74.15;48.38;;;;;;;-1.19;100.00;99658.56;5041132;28;20037;-84
2021/01/25 05:55:22;;;;;;;81.80;51.80;;;;;;;-1.21;100.00;99658.69;5041522;28;20084;-85
2021/01/25 05:57:48;;;;;;;78.82;51.83;;;;;;;-1.18;100.00;99665.50;5037799;28;20085;-81
2021/01/25 06:00:14;;;;;;;82.38;54.35;;;;;;;-1.04;100.00;99667.09;5036311;28;20114;-80
2021/01/25 06:02:42;;;;;;;78.80;53.38;;;;;;;-1.04;100.00;99662.66;5046488;28;20045;-81
2021/01/25 06:05:11;;;;;;;77.10;52.45;;;;;;;-1.05;100.00;99660.16;5037374;28;21368;-83
2021/01/25 06:07:39;;;;;;;;;;;;;;;-1.09;100.00;99669.22;5048665;28;20041;-81
2021/01/25 06:10:08;;;;;;;80.63;52.30;;;;;;;-1.31;100.00;99670.88;5047592;28;19920;-82
2021/01/25 06:12:38;;;;;;;81.38;52.92;;;;;;;-1.32;100.00;99669.19;5048146;28;20618;-84
2021/01/25 06:15:06;;;;;;;79.47;52.28;;;;;;;-1.21;100.00;99671.88;5047209;28;20128;-80
2021/01/25 06:17:35;;;;;;;85.82;55.55;;;;;;;-1.16;100.00;99682.84;5048594;28;20037;-83
2021/01/25 06:20:05;;;;;;;87.97;56.95;;;;;;;-1.24;100.00;99682.59;5027250;28;20124;-84
2021/01/25 06:22:32;;;;;;;86.10;56.33;;;;;;;-1.28;100.00;99690.84;5044829;28;20046;-83
2021/01/25 06:25:00;;;;;;;87.45;55.70;;;;;;;-1.23;100.00;99689.56;5064045;28;20110;-83
2021/01/25 06:27:26;;;;;;;79.55;54.22;;;;;;;-1.08;100.00;99694.63;5050068;28;20044;-83
2021/01/25 06:29:53;;;;;;;88.18;57.17;;;;;;;-1.09;100.00;99698.19;5036701;28;20365;-83
2021/01/25 06:32:18;;;;;;;83.95;52.90;;;;;;;-1.07;100.00;99704.19;5036540;28;20464;-80
2021/01/25 06:34:44;;;;;;;78.47;50.63;;;;;;;-1.15;100.00;99703.00;5029241;28;20067;-83
2021/01/25 06:37:11;;;;;;;73.97;51.05;;;;;;;-1.17;100.00;99715.41;5040333;28;20125;-83
2021/01/25 06:39:44;;;;;;;78.97;53.58;;;;;;;-1.30;100.00;99714.66;5032861;28;20071;-78
2021/01/25 06:42:15;;;;;;;76.40;51.60;;;;;;;-1.34;100.00;99715.84;5046938;28;20044;-84
2021/01/25 06:44:42;;;;;;;73.38;48.00;;;;;;;-1.31;100.00;99715.63;5048141;28;20041;-79
2021/01/25 06:47:07;;;;;;;79.70;51.10;;;;;;;-1.37;100.00;99729.22;5045950;28;20048;-82
2021/01/25 06:49:33;;;;;;;80.72;51.95;;;;;;;-1.39;100.00;99726.69;5052589;28;20052;-85
2021/01/25 06:51:59;;;;;;;76.50;48.90;;;;;;;-1.44;100.00;99735.88;5047269;28;20136;-85
2021/01/25 06:54:26;;;;;;;75.15;51.30;;;;;;;-1.45;100.00;99735.06;5046807;28;20455;-82
2021/01/25 06:56:55;;;;;;;80.45;51.38;;;;;;;-1.37;100.00;99739.75;5031734;28;20073;-83
2021/01/25 06:59:24;;;;;;;79.50;50.78;;;;;;;-1.37;100.00;99745.03;5045295;28;20049;-85
2021/01/25 07:01:52;;;;;;;81.63;52.40;;;;;;;-1.42;100.00;99740.09;5054902;28;20128;-85
2021/01/25 07:04:23;;;;;;;84.40;52.95;;;;;;;-1.41;100.00;99759.34;5050053;28;20072;-86
2021/01/25 07:06:53;;;;;;;86.15;57.08;;;;;;;-1.45;100.00;99752.66;5041643;28;20048;-82
2021/01/25 07:09:26;;;;;;;81.15;55.92;;;;;;;-1.42;100.00;99753.25;5065657;28;20049;-82
2021/01/25 07:11:53;;;;;;;82.05;53.53;;;;;;;-1.57;100.00;99753.56;5052502;28;20067;-84
2021/01/25 07:14:22;;;;;;;82.80;54.00;;;;;;;-1.45;100.00;99763.16;5050563;28;20041;-80
2021/01/25 07:16:51;;;;;;;88.15;54.67;;;;;;;-1.41;100.00;99764.63;5043138;28;20064;-81
2021/01/25 07:19:18;;;;;;;82.53;55.67;;;;;;;-1.49;100.00;99774.88;5036232;28;20045;-80
2021/01/25 07:21:45;;;;;;;82.07;54.72;;;;;;;-1.54;100.00;99779.63;5033116;28;20037;-84
2021/01/25 07:24:13;;;;;;;81.28;50.47;;;;;;;-1.62;100.00;99780.19;5021459;28;20037;-84
2021/01/25 07:26:38;;;;;;;83.65;53.92;;;;;;;-1.58;100.00;99784.28;5048506;28;20139;-78
2021/01/25 07:29:11;;;;;;;81.97;54.08;;;;;;;-1.59;100.00;99790.47;5043333;28;20381;-80
2021/01/25 07:31:39;;;;;;;87.57;55.55;;;;;;;-1.51;100.00;99792.56;5047808;28;20041;-82
2021/01/25 07:34:08;;;;;;;85.45;53.58;;;;;;;-1.42;100.00;99795.34;5045453;28;20044;-80
2021/01/25 07:36:35;;;;;;;87.05;55.45;;;;;;;-1.41;100.00;99789.16;5062080;28;20142;-83
2021/01/25 07:39:00;;;;;;;79.65;52.47;;;;;;;-1.49;100.00;99804.66;5048256;28;20102;-84
2021/01/25 07:41:26;;;;;;;85.10;55.28;;;;;;;-1.66;100.00;99811.16;5049022;28;20485;-79
2021/01/25 07:43:51;;;;;;;84.82;54.22;;;;;;;-1.54;100.00;99805.94;5029301;28;20538;-84
2021/01/25 07:46:22;;;;;;;95.80;54.65;;;;;;;-1.49;100.00;99811.72;5036585;28;20521;-85
2021/01/25 07:48:52;;;;;;;89.68;57.63;;;;;;;-1.45;100.00;99816.63;5044989;28;20048;-82
2021/01/25 07:51:25;;;;;;;82.75;55.75;;;;;;;-1.45;100.00;99826.34;5049915;28;20120;-82
2021/01/25 07:53:51;;;;;;;87.55;57.13;;;;;;;-1.48;100.00;99826.56;5047246;28;20119;-84
2021/01/25 07:56:18;;;;;;;84.28;53.38;;;;;;;-1.67;100.00;99833.16;5044553;28;20044;-82
2021/01/25 07:58:45;;;;;;;94.78;58.78;;;;;;;-1.65;100.00;99838.28;5026086;28;20060;-81
2021/01/25 08:01:17;;;;;;;89.22;56.05;;;;;;;-1.64;100.00;99837.31;5048914;28;20652;-82
2021/01/25 08:03:45;;;;;;;90.00;58.15;;;;;;;-1.66;100.00;99842.72;5045755;28;20094;-83
2021/01/25 08:06:12;;;;;;;94.97;59.57;;;;;;;-1.53;100.00;99841.81;5046039;28;20091;-82
2021/01/25 08:08:40;;;;;;;95.55;58.65;;;;;;;-1.49;100.00;99845.94;5039657;28;20041;-83
2021/01/25 08:11:24;;;;;;;92.47;59.05;;;;;;;-1.58;100.00;99850.06;5041385;28;20075;-83
2021/01/25 08:14:05;;;;;;;96.80;60.65;;;;;;;-1.48;100.00;99858.13;5045678;28;20044;-83
2021/01/25 08:16:37;;;;;;;97.18;56.80;;;;;;;-1.64;100.00;99867.13;5050299;28;20041;-82
2021/01/25 08:19:16;;;;;;;95.03;61.20;;;;;;;-1.60;100.00;99860.69;5049588;28;20049;-83
2021/01/25 08:21:57;;;;;;;97.68;61.65;;;;;;;-1.50;100.00;99875.81;5050559;28;20041;-81
2021/01/25 08:24:22;;;;;;;97.57;58.35;;;;;;;-1.61;100.00;99869.53;5047376;28;20060;-85
2021/01/25 08:26:54;;;;;;;87.97;54.60;;;;;;;-1.52;100.00;99873.31;5051000;28;20052;-81
2021/01/25 08:29:24;;;;;;;93.88;59.92;;;;;;;-1.54;100.00;99866.47;5046368;28;20046;-83
2021/01/25 08:31:50;;;;;;;95.22;58.05;;;;;;;-1.57;100.00;99877.22;5052378;28;20041;-82
2021/01/25 08:34:18;;;;;;;93.65;59.72;;;;;;;-1.69;100.00;99882.41;5050326;28;20049;-82
2021/01/25 08:36:54;;;;;;;88.10;56.10;;;;;;;-1.60;100.00;99887.00;5048429;28;20041;-83
2021/01/25 08:39:30;;;;;;;90.78;58.83;;;;;;;-1.62;100.00;99888.06;5053089;28;20279;-82
2021/01/25 08:41:55;;;;;;;92.47;57.50;;;;;;;-1.67;100.00;99896.28;5051331;28;20032;-79
2021/01/25 08:44:23;;;;;;;93.35;57.72;;;;;;;-1.72;100.00;99895.75;5051669;28;20056;-82
2021/01/25 08:46:50;;;;;;;93.13;59.97;;;;;;;-1.71;100.00;99910.59;5048880;28;20070;-82
2021/01/25 08:49:24;;;;;;;95.65;60.15;;;;;;;-1.69;100.00;99908.69;5050084;28;20041;-82
2021/01/25 08:51:55;;;;;;;91.78;56.78;;;;;;;-1.69;100.00;99913.13;5044164;28;20040;-84
2021/01/25 08:54:25;;;;;;;93.65;58.65;;;;;;;-1.80;100.00;99915.66;5045784;28;20049;-84
2021/01/25 08:56:51;;;;;;;98.10;61.03;;;;;;;-1.80;100.00;99921.75;5051933;28;20033;-84
2021/01/25 08:59:29;;;;;;;103.25;63.97;;;;;;;-1.84;100.00;99926.41;5033764;28;20047;-84
2021/01/25 09:01:54;;;;;;;94.95;59.83;;;;;;;-1.77;100.00;99929.44;5052696;28;20397;-81
2021/01/25 09:04:20;;;;;;;102.53;63.95;;;;;;;-1.75;100.00;99924.91;5050348;28;20067;-82
2021/01/25 09:06:53;;;;;;;108.18;64.53;;;;;;;-1.85;100.00;99935.22;5051328;28;20497;-81
2021/01/25 09:09:20;;;;;;;105.90;66.45;;;;;;;-1.85;100.00;99934.38;5051831;28;20662;-83
2021/01/25 09:11:45;;;;;;;101.18;63.35;;;;;;;-1.89;100.00;99941.66;5049166;28;20041;-82
2021/01/25 09:14:12;;;;;;;107.88;66.43;;;;;;;-1.95;100.00;99947.34;5051070;28;20120;-82
2021/01/25 09:16:37;;;;;;;102.25;66.63;;;;;;;-1.86;100.00;99943.22;5052648;28;20104;-84
2021/01/25 09:19:03;;;;;;;108.15;65.32;;;;;;;-1.82;100.00;99949.94;5034323;28;20112;-85
2021/01/25 09:21:29;;;;;;;111.18;65.55;;;;;;;-1.83;100.00;99954.38;5054245;28;20037;-85
2021/01/25 09:23:54;;;;;;;108.85;67.82;;;;;;;-1.82;100.00;99957.84;5049246;28;20409;-82
2021/01/25 09:26:19;;;;;;;110.30;68.90;;;;;;;-1.75;100.00;99964.38;5052601;28;20130;-81
2021/01/25 09:28:45;;;;;;;117.13;69.13;;;;;;;-1.84;100.00;99959.75;5050270;28;20045;-83
2021/01/25 09:31:11;;;;;;;115.68;70.45;;;;;;;-1.81;100.00;99967.44;5051998;28;20045;-81
2021/01/25 09:33:37;;;;;;;113.90;69.70;;;;;;;-1.76;100.00;99975.81;5051029;28;20055;-83
2021/01/25 09:36:03;;;;;;;124.45;76.80;;;;;;;-1.76;100.00;99973.19;5049620;28;20045;-82
2021/01/25 09:38:29;;;;;;;115.18;72.60;;;;;;;-1.66;100.00;99979.50;5051943;28;20091;-82
2021/01/25 09:40:54;;;;;;;117.03;71.95;;;;;;;-1.68;100.00;99981.41;5052454;28;20037;-82
2021/01/25 09:43:19;;;;;;;117.78;69.93;;;;;;;-1.66;100.00;99971.63;5052376;28;20045;-81
2021/01/25 09:45:45;;;;;;;112.45;71.82;;;;;;;-1.63;100.00;99983.72;5047283;28;20128;-82
2021/01/25 09:48:11;;;;;;;116.80;70.32;;;;;;;-1.64;100.00;99985.53;5052710;28;20386;-81
2021/01/25 09:50:36;;;;;;;117.93;69.03;;;;;;;-1.52;100.00;99989.09;5051489;28;20045;-82
2021/01/25 09:53:03;;;;;;;120.13;75.15;;;;;;;-1.40;100.00;99990.03;5051971;28;20033;-82
2021/01/25 09:55:28;;;;;;;109.75;70.03;;;;;;;-1.24;100.00;100001.13;5051191;28;20067;-82
2021/01/25 09:57:55;;;;;;;105.63;66.57;;;;;;;-1.20;100.00;100007.06;5051880;28;20513;-81
2021/01/25 10:00:21;;;;;;;97.10;64.40;;;;;;;-1.14;100.00;100012.72;5050713;28;20045;-82
2021/01/25 10:02:47;;;;;;;103.07;63.33;;;;;;;-1.09;100.00;100006.28;5052311;28;20029;-83
2021/01/25 10:05:15;;;;;;;96.38;63.65;;;;;;;-1.01;100.00;100014.47;5055141;28;20110;-81
2021/01/25 10:07:40;;;;;;;91.47;61.88;;;;;;;-0.90;100.00;100022.44;5055946;28;20541;-82
2021/01/25 10:10:09;;;;;;;80.50;49.65;;;;;;;-0.82;100.00;100025.38;5053569;28;20126;-82
2021/01/25 10:12:35;;;;;;;83.75;56.63;;;;;;;-0.68;100.00;100019.97;5056367;28;20037;-83
2021/01/25 10:15:00;;;;;;;82.15;53.20;;;;;;;-0.61;100.00;100024.78;5051582;28;20043;-82
2021/01/25 10:17:28;;;;;;;81.70;54.78;;;;;;;-0.53;100.00;100025.91;5058677;28;20068;-82
2021/01/25 10:19:54;;;;;;;79.57;52.45;;;;;;;-0.37;100.00;100024.78;5032111;28;20393;-83
2021/01/25 10:22:19;;;;;;;74.22;53.42;;;;;;;-0.30;100.00;100023.38;5052763;28;20045;-82
2021/01/25 10:24:44;;;;;;;65.55;42.92;;;;;;;-0.21;100.00;100035.03;5049880;28;20032;-81
2021/01/25 10:27:10;;;;;;;63.90;44.80;;;;;;;-0.17;100.00;100039.97;5052626;28;20106;-81
2021/01/25 10:29:35;;;;;;;63.53;44.05;;;;;;;-0.09;100.00;100045.50;5052137;28;20037;-81
2021/01/25 10:32:01;;;;;;;62.17;40.33;;;;;;;-0.06;100.00;100044.44;5033763;28;20060;-82
2021/01/25 10:34:26;;;;;;;55.95;42.45;;;;;;;0.01;100.00;100053.59;5049620;28;20132;-83
2021/01/25 10:36:52;;;;;;;53.58;36.75;;;;;;;-0.02;100.00;100054.66;5042476;28;20128;-81
2021/01/25 10:39:18;;;;;;;54.33;35.40;;;;;;;0.01;100.00;100063.31;5049509;28;20080;-81
2021/01/25 10:41:44;;;;;;;52.13;37.78;;;;;;;0.10;100.00;100060.81;5044982;28;20041;-82
2021/01/25 10:44:09;;;;;;;58.30;37.65;;;;;;;0.20;100.00;100061.81;5052522;28;20074;-82
2021/01/25 10:46:35;;;;;;;53.15;35.88;;;;;;;0.31;100.00;100074.19;5056540;28;20052;-83
2021/01/25 10:49:00;;;;;;;44.22;31.80;;;;;;;0.32;100.00;100069.75;5028174;28;20057;-81
2021/01/25 10:51:26;;;;;;;51.03;34.70;;;;;;;0.37;100.00;100078.97;5054816;28;20045;-81
2021/01/25 10:53:51;;;;;;;50.90;35.80;;;;;;;0.55;100.00;100076.78;5047134;28;20045;-82
2021/01/25 10:56:16;;;;;;;45.50;32.28;;;;;;;0.65;100.00;100075.09;5048174;28;20037;-81
2021/01/25 10:58:42;;;;;;;46.85;33.28;;;;;;;0.73;100.00;100074.50;5047361;28;20061;-81
2021/01/25 11:01:10;;;;;;;40.60;31.42;;;;;;;0.67;100.00;100074.97;5042741;28;20087;-83
2021/01/25 11:03:36;;;;;;;39.72;30.65;;;;;;;0.69;100.00;100075.69;5033484;28;20064;-82
2021/01/25 11:06:02;;;;;;;38.33;28.10;;;;;;;0.65;100.00;100077.72;5045437;28;20060;-81
2021/01/25 11:08:28;;;;;;;37.72;28.27;;;;;;;0.80;100.00;100085.44;5049691;28;20053;-81